Time;durP1;ratioP1;P1;durP2;ratioP2;P2;SDS_P1;SDS_P2;PMS_P1;PMS_P2;Temp;Humidity;BMP_temperature;BMP_pressure;BME280_temperature;BME280_humidity;BME280_pressure;Samples;Min_cycle;Max_cycle;Signal;HPM_P1;HPM_P2
2021/07/27 05:16:14;;;;;;;12.05;7.83;;;;;;;19.23;79.92;98066.77;1888142;76;22978;-62
2021/07/27 05:18:41;;;;;;;8.15;7.05;;;;;;;19.17;80.17;98068.16;1855871;77;20875;-67
2021/07/27 05:21:08;;;;;;;8.70;6.37;;;;;;;19.21;80.47;98075.83;1823349;77;21203;-63
2021/07/27 05:23:34;;;;;;;12.33;6.75;;;;;;;19.24;80.33;98080.58;1855810;77;20935;-65
2021/07/27 06:42:43;;;;;;;9.65;7.00;;;;;;;21.86;75.19;98015.68;1871409;76;22526;-66
2021/07/27 06:45:12;;;;;;;13.08;6.97;;;;;;;21.91;74.95;98006.41;1828054;78;20891;-63
2021/07/27 06:47:39;;;;;;;11.88;7.00;;;;;;;22.10;74.62;98015.89;1828486;78;21111;-60
2021/07/27 06:50:07;;;;;;;13.75;6.75;;;;;;;22.30;74.47;98020.14;1827448;78;21570;-68
2021/07/27 06:52:34;;;;;;;12.78;6.58;;;;;;;22.52;73.78;98023.39;1827693;78;21081;-67
2021/07/27 06:55:00;;;;;;;13.35;7.35;;;;;;;22.73;73.51;98031.92;1827671;78;20934;-68
2021/07/27 06:57:27;;;;;;;9.28;6.47;;;;;;;22.92;73.20;98033.17;1827019;78;20911;-65
2021/07/27 06:59:54;;;;;;;11.00;7.00;;;;;;;23.10;72.78;98029.31;1826653;77;23002;-67
2021/07/27 07:02:23;;;;;;;10.08;5.95;;;;;;;23.25;72.23;98026.19;1825999;78;20927;-67
2021/07/27 07:04:50;;;;;;;10.55;6.25;;;;;;;23.40;71.43;98019.75;1825970;78;21013;-66
2021/07/27 07:07:17;;;;;;;11.08;6.10;;;;;;;23.56;71.09;98017.58;1827815;78;21500;-64
2021/07/27 07:09:44;;;;;;;14.33;6.60;;;;;;;23.71;70.37;98024.78;1796836;77;20901;-65
2021/07/27 07:12:13;;;;;;;7.47;6.30;;;;;;;23.88;69.29;98012.45;1828214;78;21352;-63
2021/07/27 07:14:40;;;;;;;10.85;6.42;;;;;;;24.01;69.02;98009.05;1855879;77;21422;-67
2021/07/27 07:17:09;;;;;;;9.45;6.42;;;;;;;24.15;68.38;98006.46;1858944;77;20912;-64
2021/07/27 07:19:36;;;;;;;9.18;5.90;;;;;;;24.27;67.70;98004.80;1825391;78;21497;-65
2021/07/27 07:22:04;;;;;;;12.93;6.22;;;;;;;24.40;66.99;98004.70;1827621;78;20868;-63
2021/07/27 07:24:31;;;;;;;10.08;6.22;;;;;;;24.52;66.71;98005.58;1825368;78;21213;-66
2021/07/27 07:26:58;;;;;;;12.05;6.20;;;;;;;24.61;66.25;98009.55;1827583;78;20958;-61
2021/07/27 07:29:25;;;;;;;11.50;5.97;;;;;;;24.75;66.47;98002.80;1832350;77;21008;-67
2021/07/27 07:31:52;;;;;;;11.55;6.17;;;;;;;24.88;65.75;98012.27;1828154;77;20919;-64
2021/07/27 07:34:19;;;;;;;8.45;5.87;;;;;;;24.95;64.89;98003.30;1827064;77;20916;-64
2021/07/27 07:36:46;;;;;;;9.23;5.87;;;;;;;25.03;64.51;98006.29;1852384;77;21110;-65
2021/07/27 07:39:12;;;;;;;9.30;6.42;;;;;;;25.08;64.42;98008.66;1847094;77;20959;-65
2021/07/27 07:41:39;;;;;;;11.12;5.50;;;;;;;25.12;64.30;98011.62;1819940;78;20944;-62
2021/07/27 07:44:09;;;;;;;8.28;5.75;;;;;;;25.18;63.71;98014.75;1815606;79;21008;-65
2021/07/27 07:46:35;;;;;;;11.03;5.87;;;;;;;25.23;63.82;98010.28;1814693;79;21059;-66
2021/07/27 07:49:02;;;;;;;11.55;5.85;;;;;;;25.30;63.01;98010.88;1816151;78;21103;-67
2021/07/27 07:51:29;;;;;;;11.88;6.03;;;;;;;25.34;62.11;98012.49;1812213;78;20848;-67
2021/07/27 07:53:56;;;;;;;12.50;5.60;;;;;;;25.38;62.19;98009.17;1812656;78;20868;-67
2021/07/27 07:56:22;;;;;;;14.38;6.25;;;;;;;25.44;62.06;98015.87;1813857;78;20927;-67
2021/07/27 07:58:49;;;;;;;13.60;5.53;;;;;;;25.51;62.26;98015.89;1807490;79;21046;-64
2021/07/27 08:01:17;;;;;;;10.80;5.42;;;;;;;25.54;61.43;98013.75;1808024;79;21003;-64
2021/07/27 08:03:44;;;;;;;12.65;5.72;;;;;;;25.57;60.75;98019.84;1809304;79;21430;-63
2021/07/27 08:06:11;;;;;;;9.30;5.20;;;;;;;25.61;60.62;98020.63;1808372;79;20852;-62
2021/07/27 08:08:39;;;;;;;11.28;5.95;;;;;;;25.64;60.46;98025.34;1809029;79;20916;-64
2021/07/27 08:11:10;;;;;;;10.35;5.70;;;;;;;25.68;60.37;98025.34;1809071;79;20872;-67
2021/07/27 08:13:36;;;;;;;16.23;5.80;;;;;;;25.70;60.09;98026.52;1808151;79;21119;-62
2021/07/27 08:16:09;;;;;;;8.88;5.65;;;;;;;25.73;60.46;98025.75;1809253;79;20860;-64
2021/07/27 08:18:37;;;;;;;11.70;5.58;;;;;;;25.79;60.79;98024.80;1809275;79;20944;-66
2021/07/27 08:21:04;;;;;;;9.98;5.72;;;;;;;25.88;60.33;98028.52;1809032;79;20940;-66
2021/07/27 08:23:31;;;;;;;10.23;5.70;;;;;;;25.98;60.69;98022.27;1817861;77;20872;-63
2021/07/27 08:25:59;;;;;;;12.30;5.80;;;;;;;26.35;60.07;98026.83;1846849;77;22244;-62
2021/07/27 08:28:26;;;;;;;13.88;5.58;;;;;;;26.48;60.16;98026.61;1827253;77;20976;-66
2021/07/27 08:30:53;;;;;;;8.78;5.22;;;;;;;26.48;60.16;98026.61;1777187;79;20957;-63
2021/07/27 08:33:23;;;;;;;12.18;6.20;;;;;;;26.65;59.27;98022.27;1777121;80;20928;-63
2021/07/27 08:35:51;;;;;;;12.75;6.15;;;;;;;26.79;58.44;98023.66;1777309;80;20924;-65
2021/07/27 08:38:18;;;;;;;12.15;5.95;;;;;;;27.03;57.71;98019.48;1775818;80;21229;-67
2021/07/27 08:40:48;;;;;;;13.83;6.15;;;;;;;27.03;57.71;98019.48;1775473;80;21071;-66
2021/07/27 08:43:16;;;;;;;12.43;5.83;;;;;;;27.16;57.32;98015.69;1775941;80;21003;-65
2021/07/27 08:45:44;;;;;;;14.55;6.08;;;;;;;27.20;56.47;98025.31;1777028;80;20944;-67
2021/07/27 08:48:11;;;;;;;14.78;5.87;;;;;;;27.17;56.25;98024.72;1777406;80;20924;-66
2021/07/27 08:50:39;;;;;;;12.98;5.70;;;;;;;27.12;55.98;98025.33;1776984;79;21233;-66
2021/07/27 08:53:06;;;;;;;16.10;5.80;;;;;;;27.05;55.75;98028.69;1785160;77;21498;-64
2021/07/27 08:55:32;;;;;;;18.35;6.05;;;;;;;27.03;55.49;98032.44;1824936;77;21000;-63
2021/07/27 08:57:59;;;;;;;8.40;5.30;;;;;;;27.07;55.78;98025.73;1846089;77;21067;-65
2021/07/27 09:00:28;;;;;;;12.90;5.95;;;;;;;27.12;56.12;98029.45;1846778;77;20979;-66
2021/07/27 09:03:09;;;;;;;12.13;5.80;;;;;;;27.16;56.11;98030.05;1846948;77;21830;-68
2021/07/27 09:05:37;;;;;;;22.65;6.28;;;;;;;27.17;56.56;98023.34;1845533;77;20959;-67
2021/07/27 09:08:06;;;;;;;10.80;5.97;;;;;;;27.20;56.26;98027.47;1846482;77;20932;-66
2021/07/27 09:10:34;;;;;;;13.58;5.58;;;;;;;27.23;56.68;98028.64;1818560;77;21002;-67
2021/07/27 09:13:06;;;;;;;11.80;5.55;;;;;;;27.29;56.46;98029.78;1815217;78;21333;-64
2021/07/27 09:15:36;;;;;;;16.52;6.12;;;;;;;27.42;56.95;98024.05;1815078;78;21103;-64
2021/07/27 09:18:08;;;;;;;10.35;5.60;;;;;;;27.64;56.83;98017.27;1814614;79;20995;-63
2021/07/27 09:20:45;;;;;;;11.93;5.75;;;;;;;27.83;56.22;98024.23;1813753;79;21036;-64
2021/07/27 09:23:21;;;;;;;13.28;5.83;;;;;;;27.97;54.16;98026.30;1775586;80;21047;-65
2021/07/27 09:25:51;;;;;;;16.55;5.75;;;;;;;28.09;54.12;98027.23;1777199;80;21486;-66
2021/07/27 09:28:19;;;;;;;17.50;5.97;;;;;;;28.13;53.44;98019.72;1776458;80;21462;-66
2021/07/27 09:30:47;;;;;;;11.57;5.67;;;;;;;28.13;53.36;98022.47;1777179;80;21478;-68
2021/07/27 09:33:15;;;;;;;12.93;5.80;;;;;;;28.12;53.21;98017.38;1777144;80;20900;-67
2021/07/27 09:35:44;;;;;;;11.18;5.87;;;;;;;28.14;53.06;98021.30;1777111;80;21414;-66
2021/07/27 09:38:17;;;;;;;14.83;5.90;;;;;;;28.21;53.42;98016.33;1779195;79;20896;-66
2021/07/27 09:40:57;;;;;;;14.63;6.30;;;;;;;28.27;53.12;98019.61;1790346;79;21093;-65
2021/07/27 09:43:25;;;;;;;13.78;5.37;;;;;;;28.36;53.56;98017.16;1791426;79;20872;-63
2021/07/27 09:45:55;;;;;;;17.27;5.87;;;;;;;28.50;53.49;98007.23;1778186;79;20916;-67
2021/07/27 09:48:23;;;;;;;11.70;5.25;;;;;;;28.69;53.13;98010.81;1778786;79;20927;-65
2021/07/27 09:50:54;;;;;;;13.98;5.35;;;;;;;28.93;52.89;98008.38;1778061;79;21014;-64
2021/07/27 09:53:21;;;;;;;10.82;5.60;;;;;;;29.15;52.33;97997.30;1775694;80;21215;-66
2021/07/27 09:55:50;;;;;;;14.95;5.67;;;;;;;29.36;51.94;98003.17;1775634;80;21041;-68
2021/07/27 09:58:17;;;;;;;14.30;5.50;;;;;;;29.47;51.35;98008.73;1775688;80;20970;-66
2021/07/27 10:00:57;;;;;;;10.60;5.50;;;;;;;29.56;51.20;98002.09;1775681;80;21062;-62
2021/07/27 10:03:27;;;;;;;13.45;5.20;;;;;;;29.66;50.79;98005.31;1775733;80;21034;-64
2021/07/27 10:06:00;;;;;;;13.58;5.50;;;;;;;29.77;50.43;97992.79;1775916;80;21972;-63
2021/07/27 10:08:33;;;;;;;13.13;5.90;;;;;;;29.87;50.22;97991.04;1776775;80;20912;-65
2021/07/27 10:11:12;;;;;;;14.00;5.17;;;;;;;29.96;50.18;97998.22;1776784;80;20920;-64
2021/07/27 10:13:50;;;;;;;11.78;4.90;;;;;;;30.05;49.80;97997.88;1777057;80;21435;-62
2021/07/27 10:16:22;;;;;;;14.60;5.57;;;;;;;30.20;49.15;97997.03;1776156;80;20880;-66
2021/07/27 10:18:49;;;;;;;12.95;5.35;;;;;;;30.34;47.84;97998.20;1776474;80;22184;-64
2021/07/27 10:21:28;;;;;;;13.03;4.90;;;;;;;30.38;47.59;97992.03;1777029;80;20932;-65
2021/07/27 10:24:11;;;;;;;17.02;5.75;;;;;;;30.38;47.08;97985.12;1779290;79;20951;-66
2021/07/27 10:26:38;;;;;;;13.70;5.15;;;;;;;30.30;46.78;97991.94;1783942;79;20888;-70
2021/07/27 10:29:04;;;;;;;13.83;5.15;;;;;;;30.20;46.64;97982.63;1771469;80;21371;-66
2021/07/27 10:31:40;;;;;;;14.40;5.65;;;;;;;30.09;46.60;97981.23;1830781;78;21109;-68
2021/07/27 10:34:09;;;;;;;14.00;5.15;;;;;;;30.04;47.09;97976.19;1811571;79;20890;-62
2021/07/27 10:36:41;;;;;;;14.28;5.35;;;;;;;30.05;46.94;97979.14;1811531;79;20894;-65
2021/07/27 10:39:18;;;;;;;14.87;5.22;;;;;;;30.06;47.38;97971.81;1811564;79;20930;-69
2021/07/27 10:41:50;;;;;;;14.95;5.55;;;;;;;30.09;47.61;97973.74;1807339;79;20854;-65
2021/07/27 10:44:21;;;;;;;14.87;5.25;;;;;;;30.10;48.01;97969.00;1776231;80;21052;-62
2021/07/27 10:46:50;;;;;;;12.03;5.12;;;;;;;30.13;48.09;97966.17;1765972;78;21579;-62
2021/07/27 10:49:25;;;;;;;11.97;5.12;;;;;;;30.19;48.31;97964.51;1768750;80;21747;-67
2021/07/27 10:52:01;;;;;;;11.68;5.00;;;;;;;30.29;48.22;97960.00;1771896;79;21472;-63
2021/07/27 10:54:32;;;;;;;12.55;5.05;;;;;;;30.41;47.84;97955.25;1772758;80;21170;-64
2021/07/27 10:57:05;;;;;;;14.70;5.40;;;;;;;30.53;46.17;97958.79;1771747;79;21696;-63
2021/07/27 10:59:39;;;;;;;10.78;5.22;;;;;;;30.61;46.34;97953.92;1771946;79;21061;-64
2021/07/27 11:02:12;;;;;;;11.18;4.95;;;;;;;30.64;46.75;97949.72;1769792;79;21006;-63
2021/07/27 11:04:40;;;;;;;13.20;4.75;;;;;;;30.69;46.51;97951.21;1772257;80;21061;-68
2021/07/27 11:07:14;;;;;;;14.95;5.45;;;;;;;30.70;44.95;97952.16;1773090;80;21037;-63
2021/07/27 11:09:57;;;;;;;11.33;4.43;;;;;;;30.70;44.69;97941.10;1772878;80;21115;-66
2021/07/27 11:12:41;;;;;;;13.00;5.15;;;;;;;30.74;44.65;97935.48;1772142;80;20925;-61
2021/07/27 11:15:21;;;;;;;15.35;5.40;;;;;;;30.84;44.81;97925.61;1771684;80;21070;-63
2021/07/27 11:17:51;;;;;;;17.00;4.90;;;;;;;30.91;44.69;97919.97;1772340;80;21033;-65
2021/07/27 11:20:24;;;;;;;9.93;4.87;;;;;;;30.99;44.80;97917.25;1772749;80;21060;-62
2021/07/27 11:22:58;;;;;;;15.03;5.03;;;;;;;31.07;44.06;97913.11;1770483;80;22247;-64
2021/07/27 11:25:25;;;;;;;12.07;4.67;;;;;;;31.16;44.65;97903.47;1772422;80;21022;-62
2021/07/27 11:27:53;;;;;;;16.48;4.92;;;;;;;31.25;43.36;97909.19;1772120;80;20918;-70
2021/07/27 11:30:24;;;;;;;15.50;4.60;;;;;;;31.31;42.97;97904.70;1772309;80;21635;-63
2021/07/27 11:32:51;;;;;;;11.20;4.33;;;;;;;31.41;42.37;97899.53;1772021;80;21073;-66
2021/07/27 11:35:25;;;;;;;10.10;4.75;;;;;;;31.47;42.48;97909.69;1771378;80;21774;-69
2021/07/27 11:38:04;;;;;;;13.25;4.58;;;;;;;31.54;42.39;97907.35;1761728;80;21424;-61
2021/07/27 11:40:31;;;;;;;12.68;4.33;;;;;;;31.57;41.68;97907.88;1772837;80;20989;-64
2021/07/27 11:43:12;;;;;;;10.48;4.60;;;;;;;31.57;42.16;97909.27;1789845;78;21060;-60
2021/07/27 11:45:43;;;;;;;10.32;4.10;;;;;;;31.63;41.88;97902.03;1806281;78;20997;-70
2021/07/27 11:48:11;;;;;;;14.73;5.70;;;;;;;31.72;41.16;97909.12;1808330;78;21150;-70
2021/07/27 11:50:41;;;;;;;12.53;5.42;;;;;;;31.82;41.02;97910.08;1808354;79;20953;-63
2021/07/27 11:53:23;;;;;;;11.50;6.10;;;;;;;31.90;41.53;97906.69;1808691;79;20961;-64
2021/07/27 11:55:50;;;;;;;9.53;5.22;;;;;;;32.04;41.10;97904.98;1809118;79;20886;-63
2021/07/27 11:58:27;;;;;;;12.03;4.17;;;;;;;32.23;40.46;97917.95;1809127;79;21468;-64
2021/07/27 12:00:59;;;;;;;12.65;4.40;;;;;;;32.30;39.66;97902.52;1809296;79;21094;-65
2021/07/27 12:03:26;;;;;;;14.65;4.78;;;;;;;32.15;39.69;97916.56;1808880;79;21528;-64
2021/07/27 12:05:55;;;;;;;16.17;5.03;;;;;;;31.93;40.18;97914.14;1814152;78;20884;-64
2021/07/27 12:08:22;;;;;;;13.35;4.22;;;;;;;31.81;40.65;97921.75;1846310;77;20911;-70
2021/07/27 12:10:51;;;;;;;13.20;5.05;;;;;;;31.64;40.09;97916.02;1824057;77;20865;-61
2021/07/27 12:13:18;;;;;;;10.43;4.62;;;;;;;31.40;39.54;97920.89;1815415;79;21214;-63
2021/07/27 12:15:46;;;;;;;17.35;4.65;;;;;;;31.18;40.35;97920.41;1826622;77;21307;-65
2021/07/27 12:18:14;;;;;;;11.53;4.30;;;;;;;31.02;40.79;97913.61;1840658;78;20911;-62
2021/07/27 12:20:41;;;;;;;10.75;4.47;;;;;;;30.91;41.07;97902.59;1807464;77;20975;-71
2021/07/27 12:23:08;;;;;;;12.47;3.95;;;;;;;30.93;41.60;97902.34;1824106;77;21445;-67
2021/07/27 12:25:36;;;;;;;11.97;4.15;;;;;;;30.91;41.42;97896.47;1846832;77;21120;-71
2021/07/27 12:28:04;;;;;;;13.03;4.25;;;;;;;30.86;41.88;97891.41;1846797;77;20956;-65
2021/07/27 12:30:31;;;;;;;11.55;4.65;;;;;;;30.90;42.19;97892.13;1840574;77;20940;-67
2021/07/27 12:32:58;;;;;;;15.00;4.55;;;;;;;31.09;41.52;97878.88;1816004;79;21415;-68
2021/07/27 12:35:24;;;;;;;11.68;5.10;;;;;;;31.40;42.08;97870.30;1828183;77;20894;-64
2021/07/27 12:37:52;;;;;;;13.83;4.37;;;;;;;31.73;41.02;97867.15;1844229;77;21751;-70
2021/07/27 12:40:19;;;;;;;11.50;4.50;;;;;;;31.98;40.26;97858.26;1844087;77;20915;-70
2021/07/27 12:42:46;;;;;;;15.80;4.60;;;;;;;32.21;39.78;97859.42;1844996;77;21018;-70
2021/07/27 12:45:12;;;;;;;10.63;4.58;;;;;;;32.40;39.42;97864.05;1847661;77;20942;-72
2021/07/27 12:47:43;;;;;;;10.13;4.50;;;;;;;32.56;39.30;97870.77;1802560;77;20883;-64
2021/07/27 12:50:10;;;;;;;10.55;3.98;;;;;;;32.65;39.02;97866.14;1847283;77;21484;-64
2021/07/27 12:52:37;;;;;;;12.98;4.70;;;;;;;32.62;38.17;97868.41;1847258;77;20859;-67
